»·PEaware :: N664NT KJFK-KEWR

N664NT :: KJFK-KEWR

FLIGHT INFORMATION

Flight Status: Arrived
Operator: Privately registered:
United States
More flights under this callsign
Pilot: Anonymous 328 (328)
Aircraft: Unknown
(GA7C)
More flights by this aircraft type
Origin: KJFK Kennedy Intl
United States
Destination: KEWR Newark Intl
United States
More flights between these airports :: More routes between these airports
Route: JFK5 V16 DIXIE V276 RBV V249 SBJ
File this flight plan on PilotEdge
Remarks:
Altitude:
(Current/Filed)
6,000ft
Speed:
(Current/Filed)
0kts
Departed: 17-Apr-23 05:06 AM
Arrived: 17-Apr-23 05:48 AM
Distance/Time
Traveled:
18nm/0:42
Distance/Time
To Go:
Arrived

Flight Plot

Page will automatically refresh every two minutes.

Flight plan parsing failed; only flown route is shown


Map Options




Map Legend


Flown Route
Filed Route
Departure Airport
Arrival Airport
Navaid (VOR, NDB)
Fix

Horizontal Profiles

Position Reports

Time Latitude Longitude Heading Altitude Ground
Speed
17-Apr-23 04:11 40.650547 -73.811073 231 20ft 0kts
17-Apr-23 04:12 40.650547 -73.811073 231 20ft 0kts
17-Apr-23 04:13 40.650547 -73.811073 231 20ft 0kts
17-Apr-23 04:14 40.650547 -73.811073 231 20ft 0kts
17-Apr-23 04:14 40.650547 -73.811073 231 20ft 0kts
17-Apr-23 04:15 40.650547 -73.811073 231 20ft 0kts
17-Apr-23 04:16 40.650547 -73.811073 231 20ft 0kts
17-Apr-23 04:18 40.650547 -73.811073 231 20ft 0kts
17-Apr-23 04:19 40.650547 -73.811073 231 20ft 0kts
17-Apr-23 04:19 40.650547 -73.811073 231 20ft 0kts
17-Apr-23 04:20 40.650547 -73.811073 231 20ft 0kts
17-Apr-23 04:21 40.650547 -73.811073 231 20ft 0kts
17-Apr-23 04:22 40.650547 -73.811073 231 20ft 0kts
17-Apr-23 04:23 40.650547 -73.811073 231 20ft 0kts
17-Apr-23 04:25 40.650547 -73.811073 231 20ft 0kts
17-Apr-23 04:25 40.650547 -73.811073 231 20ft 0kts
17-Apr-23 04:26 40.650547 -73.811073 231 20ft 0kts
17-Apr-23 04:27 40.650547 -73.811073 231 20ft 0kts
17-Apr-23 04:28 40.650547 -73.811073 231 20ft 0kts
17-Apr-23 04:29 40.650547 -73.811073 231 20ft 0kts
17-Apr-23 04:30 40.650547 -73.811073 231 20ft 0kts
17-Apr-23 04:31 40.650547 -73.811073 231 20ft 0kts
17-Apr-23 04:32 40.650547 -73.811073 231 20ft 0kts
17-Apr-23 04:33 40.650547 -73.811073 231 20ft 0kts
17-Apr-23 04:34 40.650547 -73.811073 231 20ft 0kts
17-Apr-23 04:35 40.650547 -73.811073 231 20ft 0kts
17-Apr-23 04:36 40.650547 -73.811073 231 20ft 0kts
17-Apr-23 04:37 40.650547 -73.811073 231 20ft 0kts
17-Apr-23 04:38 40.650547 -73.811073 231 20ft 0kts
17-Apr-23 04:39 40.650547 -73.811073 231 20ft 0kts
17-Apr-23 04:40 40.650547 -73.811073 231 20ft 0kts
17-Apr-23 04:41 40.650547 -73.811073 231 20ft 0kts
17-Apr-23 04:42 40.650547 -73.811073 231 20ft 0kts
17-Apr-23 04:43 40.650547 -73.811073 231 20ft 0kts
17-Apr-23 04:44 40.650547 -73.811073 231 20ft 0kts
17-Apr-23 04:45 40.650547 -73.811073 231 20ft 0kts
17-Apr-23 04:46 40.650547 -73.811073 231 20ft 0kts
17-Apr-23 04:47 40.650547 -73.811073 231 20ft 0kts
17-Apr-23 04:48 40.650547 -73.811073 231 20ft 0kts
17-Apr-23 04:49 40.650547 -73.811073 231 20ft 0kts
17-Apr-23 04:50 40.650547 -73.811073 231 20ft 0kts
17-Apr-23 04:51 40.650547 -73.811073 231 20ft 0kts
17-Apr-23 04:52 40.650547 -73.811073 231 20ft 0kts
17-Apr-23 04:53 40.650547 -73.811073 231 20ft 0kts
17-Apr-23 04:54 40.650547 -73.811073 231 20ft 0kts
17-Apr-23 04:55 40.650547 -73.811073 231 20ft 0kts
17-Apr-23 04:56 40.650547 -73.811073 231 20ft 0kts
17-Apr-23 04:57 40.650547 -73.811073 231 20ft 0kts
17-Apr-23 04:58 40.650547 -73.811073 231 20ft 0kts
17-Apr-23 04:59 40.650547 -73.811073 231 20ft 0kts
17-Apr-23 05:00 40.650547 -73.811073 231 20ft 0kts
17-Apr-23 05:01 40.650547 -73.811073 231 20ft 0kts
17-Apr-23 05:02 40.649353 -73.812172 228 20ft 5kts
17-Apr-23 05:03 40.650162 -73.814926 259 20ft 2kts
17-Apr-23 05:04 40.649429 -73.815674 210 21ft 4kts
17-Apr-23 05:05 40.643997 -73.807098 121 64ft 156kts
17-Apr-23 05:06 40.616856 -73.742477 118 3723ft 225kts
17-Apr-23 05:07 40.559929 -73.706207 205 5014ft 274kts
17-Apr-23 05:08 40.500599 -73.766357 217 5002ft 268kts
17-Apr-23 05:09 40.441391 -73.825729 217 5002ft 268kts
17-Apr-23 05:10 40.381481 -73.885429 217 5985ft 272kts
17-Apr-23 05:11 40.321075 -73.945480 217 6004ft 272kts
17-Apr-23 05:12 40.260746 -74.005394 217 6002ft 272kts
17-Apr-23 05:13 40.200413 -74.064987 217 6004ft 272kts
17-Apr-23 05:14 40.139896 -74.124718 217 6003ft 272kts
17-Apr-23 05:15 40.112240 -74.206635 291 6009ft 272kts
17-Apr-23 05:16 40.141033 -74.297974 292 6001ft 272kts
17-Apr-23 05:17 40.169674 -74.389793 292 6001ft 272kts
17-Apr-23 05:18 40.201885 -74.478897 319 5998ft 272kts
17-Apr-23 05:19 40.270409 -74.466415 31 6005ft 272kts
17-Apr-23 05:20 40.335617 -74.415733 30 6004ft 272kts
17-Apr-23 05:21 40.400532 -74.365639 30 4898ft 261kts
17-Apr-23 05:22 40.457031 -74.321983 30 3832ft 211kts
17-Apr-23 05:23 40.503880 -74.285728 30 3134ft 188kts
17-Apr-23 05:24 40.548859 -74.255829 25 2494ft 165kts
17-Apr-23 05:25 40.590256 -74.229515 26 1907ft 164kts
17-Apr-23 05:26 40.630032 -74.204323 25 1162ft 137kts
17-Apr-23 05:27 40.663212 -74.183304 25 536ft 142kts
17-Apr-23 05:28 40.697502 -74.159698 20 2411ft 172kts
17-Apr-23 05:29 40.736744 -74.105736 54 2498ft 217kts
17-Apr-23 05:30 40.790760 -74.078407 12 2502ft 207kts
17-Apr-23 05:31 40.840370 -74.064720 5 2498ft 165kts
17-Apr-23 05:32 40.840523 -74.110458 227 2990ft 207kts
17-Apr-23 05:33 40.800934 -74.166229 226 3001ft 208kts
17-Apr-23 05:34 40.761242 -74.222260 227 3000ft 208kts
17-Apr-23 05:35 40.721588 -74.278328 226 3001ft 208kts
17-Apr-23 05:36 40.681953 -74.334404 227 3000ft 208kts
17-Apr-23 05:37 40.642189 -74.389885 216 2998ft 208kts
17-Apr-23 05:38 40.590729 -74.425392 207 3000ft 208kts
17-Apr-23 05:39 40.539005 -74.460281 207 3000ft 208kts
17-Apr-23 05:40 40.491707 -74.449097 102 3005ft 208kts
17-Apr-23 05:41 40.492462 -74.374458 72 3003ft 208kts
17-Apr-23 05:42 40.509109 -74.301208 73 3001ft 208kts
17-Apr-23 05:43 40.549988 -74.255112 25 2485ft 191kts
17-Apr-23 05:44 40.596760 -74.225349 25 1815ft 184kts
17-Apr-23 05:45 40.640030 -74.197990 25 945ft 162kts
17-Apr-23 05:46 40.674965 -74.175850 25 203ft 130kts
17-Apr-23 05:47 40.691017 -74.165817 3 19ft 23kts
17-Apr-23 05:48 40.692890 -74.165939 355 19ft 0kts
17-Apr-23 05:49 40.692890 -74.165939 355 19ft 0kts
17-Apr-23 05:50 40.692890 -74.165939 355 19ft 0kts
17-Apr-23 05:51 40.692890 -74.165939 355 19ft 0kts
17-Apr-23 05:52 40.692890 -74.165939 355 19ft 0kts
17-Apr-23 05:53 40.692890 -74.165939 355 19ft 0kts
17-Apr-23 05:54 40.692890 -74.165939 355 19ft 0kts
17-Apr-23 05:55 40.692890 -74.165939 355 19ft 0kts
17-Apr-23 05:56 40.692890 -74.165939 355 19ft 0kts
17-Apr-23 05:57 40.692890 -74.165939 355 19ft 0kts
17-Apr-23 05:58 40.692890 -74.165939 355 19ft 0kts

Navigation Log

Ident Type
Flight plan parsing failed, navigation log unavailable